Terminal Aerodrome Forecast
Issued by NWS

Home | Current Version | Previous Version | Text Only | Print | Product List | Glossary On
Versions: 1 2 3 4 5 6 7 8 9 10 11 12 13 14 15 16 17 18 19 20 21
000
FTUS46 KMTR 221700
TAFSNS
TAF
KSNS 221736Z 2218/2318 30004KT P6SM BKN020 BKN150
     FM221830 30005KT P6SM SCT020 BKN150
     FM222100 28012KT P6SM FEW020 FEW200
     FM230300 28008KT P6SM SCT020
     FM230500 27005KT P6SM OVC007=

USA.gov is the U.S. government's official web portal to all federal, state and local government web resources and services.